Cerqueira Cesar, Brazil
Current Conditions -  °F | °C
As of 5:00 PM on Wednesday 17 Dec 2014 (Local Time) from SBBU Reporting Station
Scattered Clouds Scattered Clouds  
Wind Chill: 91°   Ceiling: Unl
Heat Index: 98°   Visibility: 6mi
Dew Point: 72°   Wind: 2mph
Humidity: 52%   Direction: 270°W
Pressure: 29.83"   Gusts: NA
Location:  23.05°S, 49.17°W
Report Text: SBBU 171900Z 27002KT 9999 SCT040 33/22 Q1010
Loading
Personal Weather Stations






























Interactive Weather Map New forecast layout! Learn more

10-Day Weather Forecast

Advertisements
Track Severe Weather on mobile